Time;durP1;ratioP1;P1;durP2;ratioP2;P2;SDS_P1;SDS_P2;PMS_P1;PMS_P2;Temp;Humidity;BMP_temperature;BMP_pressure;BME280_temperature;BME280_humidity;BME280_pressure;Samples;Min_cycle;Max_cycle;Signal;HPM_P1;HPM_P2
2022/05/07 00:00:07;;;;;;;12.32;10.98;;;;;;;;;;516901;28;1491;-81
2022/05/07 00:00:23;;;;;;;12.40;11.02;;;;;;;;;;516692;28;1629;-81
2022/05/07 00:00:38;;;;;;;12.10;11.00;;;;;;;;;;516875;28;1534;-81
2022/05/07 00:00:54;;;;;;;11.98;10.88;;;;;;;;;;514557;28;1993;-81
2022/05/07 00:01:09;;;;;;;12.47;10.60;;;;;;;;;;514324;28;1599;-81
2022/05/07 00:01:25;;;;;;;12.65;10.60;;;;;;;;;;514815;28;1545;-81
2022/05/07 00:01:42;;;;;;;12.03;10.83;;;;;;;;;;513001;28;1538;-82
2022/05/07 00:01:57;;;;;;;11.90;10.65;;;;;;;;;;511649;28;1926;-82
2022/05/07 00:02:12;;;;;;;12.20;10.57;;;;;;;;;;510562;29;1437;-82
2022/05/07 00:02:28;;;;;;;12.20;10.95;;;;;;;;;;510070;28;1486;-82
2022/05/07 00:02:44;;;;;;;12.30;11.10;;;;;;;;;;510715;28;1478;-82
2022/05/07 00:02:59;;;;;;;12.43;11.23;;;;;;;;;;510233;28;1569;-82
2022/05/07 00:03:15;;;;;;;12.32;11.23;;;;;;;;;;510623;28;1401;-82
2022/05/07 00:03:30;;;;;;;12.27;11.17;;;;;;;;;;510854;28;1611;-82
2022/05/07 00:03:46;;;;;;;12.13;10.93;;;;;;;;;;511178;28;1787;-82
2022/05/07 00:04:02;;;;;;;11.80;10.70;;;;;;;;;;514176;28;1730;-81
2022/05/07 00:04:18;;;;;;;12.13;10.80;;;;;;;;;;515215;28;1444;-81
2022/05/07 00:04:34;;;;;;;13.90;11.10;;;;;;;;;;514572;28;2067;-81
2022/05/07 00:04:49;;;;;;;12.88;11.38;;;;;;;;;;514345;28;1449;-81
2022/05/07 00:05:06;;;;;;;12.32;11.23;;;;;;;;;;512693;28;1469;-81
2022/05/07 00:05:22;;;;;;;12.65;11.43;;;;;;;;;;511101;28;1604;-81
2022/05/07 00:05:37;;;;;;;12.80;11.47;;;;;;;;;;513014;28;1438;-81
2022/05/07 00:05:54;;;;;;;12.40;11.20;;;;;;;;;;512434;28;1536;-81
2022/05/07 00:06:09;;;;;;;12.32;11.10;;;;;;;;;;513129;28;1630;-81
2022/05/07 00:06:24;;;;;;;12.32;11.02;;;;;;;;;;510594;29;1451;-81
2022/05/07 00:06:40;;;;;;;12.27;11.07;;;;;;;;;;510919;28;1460;-81
2022/05/07 00:06:55;;;;;;;12.20;11.00;;;;;;;;;;511299;28;1488;-81
2022/05/07 00:07:11;;;;;;;12.10;10.90;;;;;;;;;;511233;28;1580;-81
2022/05/07 00:07:26;;;;;;;12.23;11.03;;;;;;;;;;511960;28;1410;-81
2022/05/07 00:07:42;;;;;;;12.15;11.02;;;;;;;;;;511386;28;1596;-81
2022/05/07 00:07:58;;;;;;;12.23;11.10;;;;;;;;;;513268;28;1687;-81
2022/05/07 00:08:13;;;;;;;12.48;11.27;;;;;;;;;;513072;28;1694;-81
2022/05/07 00:08:29;;;;;;;12.25;11.05;;;;;;;;;;515266;28;1572;-81
2022/05/07 00:08:44;;;;;;;12.37;10.97;;;;;;;;;;514863;28;1569;-81
2022/05/07 00:08:59;;;;;;;13.02;11.00;;;;;;;;;;515062;28;1410;-81
2022/05/07 00:09:15;;;;;;;12.73;11.00;;;;;;;;;;514753;28;1488;-81
2022/05/07 00:09:31;;;;;;;13.00;11.13;;;;;;;;;;514622;28;1528;-81
2022/05/07 00:09:46;;;;;;;12.38;11.10;;;;;;;;;;514435;28;1673;-81
2022/05/07 00:10:02;;;;;;;12.40;11.27;;;;;;;;;;515795;28;1614;-81
2022/05/07 00:10:17;;;;;;;12.50;11.40;;;;;;;;;;513537;28;1555;-81
2022/05/07 00:10:33;;;;;;;12.45;11.25;;;;;;;;;;514303;28;1512;-81
2022/05/07 00:10:48;;;;;;;12.97;11.50;;;;;;;;;;514814;28;1448;-81
2022/05/07 00:11:03;;;;;;;13.20;11.80;;;;;;;;;;514626;28;1615;-81
2022/05/07 00:11:20;;;;;;;12.90;11.67;;;;;;;;;;514714;28;1551;-81
2022/05/07 00:11:36;;;;;;;12.27;11.10;;;;;;;;;;514744;28;1515;-81
2022/05/07 00:11:51;;;;;;;12.30;11.03;;;;;;;;;;512412;28;1728;-81
2022/05/07 00:12:07;;;;;;;12.77;11.33;;;;;;;;;;512402;28;1445;-81
2022/05/07 00:12:22;;;;;;;13.02;11.43;;;;;;;;;;512661;28;1716;-81
2022/05/07 00:12:38;;;;;;;13.07;11.27;;;;;;;;;;512595;28;1510;-81
2022/05/07 00:12:53;;;;;;;12.17;10.97;;;;;;;;;;512981;28;2002;-81
2022/05/07 00:13:09;;;;;;;12.57;11.32;;;;;;;;;;514732;28;1528;-81
2022/05/07 00:13:24;;;;;;;13.13;11.83;;;;;;;;;;514549;28;1418;-81
2022/05/07 00:13:41;;;;;;;13.43;12.05;;;;;;;;;;514222;28;1679;-81
2022/05/07 00:13:57;;;;;;;13.30;11.90;;;;;;;;;;516061;28;1576;-81
2022/05/07 00:14:12;;;;;;;12.87;11.57;;;;;;;;;;514682;28;1563;-81
2022/05/07 00:14:28;;;;;;;12.70;11.35;;;;;;;;;;514672;28;1484;-81
2022/05/07 00:14:43;;;;;;;12.87;11.60;;;;;;;;;;514218;28;1543;-81
2022/05/07 00:14:59;;;;;;;12.82;11.63;;;;;;;;;;514790;28;1493;-81
2022/05/07 00:15:14;;;;;;;12.97;11.73;;;;;;;;;;514317;28;1657;-81
2022/05/07 00:15:29;;;;;;;13.27;11.98;;;;;;;;;;513059;28;1688;-81
2022/05/07 00:18:01;;;;;;;13.00;11.73;;;;;;;;;;512476;28;1599;-81
2022/05/07 00:18:03;;;;;;;12.95;11.70;;;;;;;;;;517083;28;1464;-81
2022/05/07 00:18:19;;;;;;;13.07;11.68;;;;;;;;;;514068;28;1495;-82
2022/05/07 00:18:34;;;;;;;12.77;11.43;;;;;;;;;;514903;28;1459;-82
2022/05/07 00:18:49;;;;;;;12.25;11.05;;;;;;;;;;514388;28;1544;-82
2022/05/07 00:19:05;;;;;;;12.50;11.20;;;;;;;;;;515340;28;1453;-82
2022/05/07 00:19:21;;;;;;;13.00;11.50;;;;;;;;;;515240;28;2279;-82
2022/05/07 00:19:36;;;;;;;12.57;11.33;;;;;;;;;;514741;28;1468;-81
2022/05/07 00:19:52;;;;;;;12.45;11.25;;;;;;;;;;514286;28;1771;-82
2022/05/07 00:20:09;;;;;;;12.38;11.10;;;;;;;;;;514885;28;1758;-81
2022/05/07 00:20:24;;;;;;;12.07;10.88;;;;;;;;;;516025;28;1636;-81
2022/05/07 00:20:40;;;;;;;12.27;11.07;;;;;;;;;;514505;28;1394;-81
2022/05/07 00:20:55;;;;;;;12.60;11.40;;;;;;;;;;514940;28;1709;-81
2022/05/07 00:21:10;;;;;;;12.65;11.45;;;;;;;;;;514919;28;1488;-81
2022/05/07 00:21:26;;;;;;;12.50;11.30;;;;;;;;;;514316;28;1602;-82
2022/05/07 00:21:41;;;;;;;12.33;11.17;;;;;;;;;;515097;28;1431;-82
2022/05/07 00:21:57;;;;;;;12.55;11.35;;;;;;;;;;515725;28;2132;-82
2022/05/07 00:22:12;;;;;;;12.97;11.57;;;;;;;;;;517027;28;1408;-82
2022/05/07 00:22:27;;;;;;;13.13;11.40;;;;;;;;;;514523;28;1503;-82
2022/05/07 00:22:43;;;;;;;12.60;11.30;;;;;;;;;;512624;28;1453;-82
2022/05/07 00:22:59;;;;;;;12.57;11.27;;;;;;;;;;510784;28;1529;-82
2022/05/07 00:23:14;;;;;;;12.73;11.45;;;;;;;;;;510883;28;1459;-82
2022/05/07 00:23:30;;;;;;;12.50;11.30;;;;;;;;;;508901;29;1467;-82
2022/05/07 00:23:46;;;;;;;12.50;11.30;;;;;;;;;;508194;29;1442;-82
2022/05/07 00:24:02;;;;;;;12.75;11.45;;;;;;;;;;508596;29;1482;-82
2022/05/07 00:24:18;;;;;;;12.07;10.88;;;;;;;;;;508383;29;1796;-82
2022/05/07 00:24:37;;;;;;;11.95;10.77;;;;;;;;;;509834;29;1982;-81
2022/05/07 00:24:53;;;;;;;11.93;10.77;;;;;;;;;;511509;28;1528;-81
2022/05/07 00:25:08;;;;;;;12.37;11.17;;;;;;;;;;511688;28;1552;-81
2022/05/07 00:25:25;;;;;;;13.52;12.13;;;;;;;;;;513943;28;1531;-81
2022/05/07 00:25:40;;;;;;;13.13;11.82;;;;;;;;;;514410;28;1549;-81
2022/05/07 00:25:56;;;;;;;12.63;11.43;;;;;;;;;;514535;28;1467;-81
2022/05/07 00:26:11;;;;;;;12.90;11.70;;;;;;;;;;515539;28;1782;-81
2022/05/07 00:26:27;;;;;;;13.00;11.70;;;;;;;;;;516388;28;1714;-81
2022/05/07 00:26:42;;;;;;;13.25;11.55;;;;;;;;;;514685;28;1479;-81
2022/05/07 00:26:58;;;;;;;13.40;11.70;;;;;;;;;;514402;28;1540;-81
2022/05/07 00:27:13;;;;;;;12.87;11.50;;;;;;;;;;515025;28;1471;-81
2022/05/07 00:27:29;;;;;;;12.20;10.98;;;;;;;;;;514762;28;1496;-81
2022/05/07 00:27:44;;;;;;;13.20;11.27;;;;;;;;;;514461;28;1481;-81
2022/05/07 00:28:00;;;;;;;13.57;11.83;;;;;;;;;;514397;28;1590;-81
2022/05/07 00:28:15;;;;;;;13.27;11.87;;;;;;;;;;516863;28;1536;-81
2022/05/07 00:28:31;;;;;;;13.45;11.93;;;;;;;;;;516657;28;1522;-81
2022/05/07 00:28:46;;;;;;;12.98;11.65;;;;;;;;;;518296;28;1487;-82
2022/05/07 00:29:02;;;;;;;13.00;11.60;;;;;;;;;;518183;28;1661;-82
2022/05/07 00:29:17;;;;;;;13.17;11.73;;;;;;;;;;518975;28;1435;-81
2022/05/07 00:29:33;;;;;;;12.95;11.57;;;;;;;;;;516684;28;1951;-81
2022/05/07 00:29:49;;;;;;;12.70;11.27;;;;;;;;;;517214;28;1459;-81
2022/05/07 00:30:06;;;;;;;13.45;11.23;;;;;;;;;;516780;28;1676;-81
2022/05/07 00:30:21;;;;;;;13.45;11.70;;;;;;;;;;516654;28;1489;-81
2022/05/07 00:30:37;;;;;;;13.23;11.83;;;;;;;;;;515178;28;1340;-81
2022/05/07 00:30:52;;;;;;;14.10;11.95;;;;;;;;;;515195;28;1621;-81
2022/05/07 00:31:07;;;;;;;13.30;11.83;;;;;;;;;;515240;28;1770;-81
2022/05/07 00:31:23;;;;;;;12.93;11.63;;;;;;;;;;515406;28;1428;-81
2022/05/07 00:31:38;;;;;;;13.07;11.68;;;;;;;;;;516656;28;1865;-81
2022/05/07 00:31:54;;;;;;;13.37;12.07;;;;;;;;;;516625;28;1524;-81
2022/05/07 00:32:09;;;;;;;13.05;11.80;;;;;;;;;;516853;28;1955;-81
2022/05/07 00:32:25;;;;;;;12.90;11.60;;;;;;;;;;516809;28;2164;-81
2022/05/07 00:32:40;;;;;;;12.95;11.70;;;;;;;;;;516748;28;1690;-81
2022/05/07 00:32:56;;;;;;;12.70;11.40;;;;;;;;;;516493;28;1530;-81
2022/05/07 00:33:11;;;;;;;12.70;11.40;;;;;;;;;;516823;28;1601;-81
2022/05/07 00:33:26;;;;;;;13.77;11.83;;;;;;;;;;517016;28;1563;-81
2022/05/07 00:33:42;;;;;;;13.47;12.03;;;;;;;;;;517041;28;1775;-81
2022/05/07 00:33:57;;;;;;;13.40;12.10;;;;;;;;;;518472;28;1573;-82
2022/05/07 00:34:13;;;;;;;13.10;11.80;;;;;;;;;;518578;28;1502;-82
2022/05/07 00:34:28;;;;;;;12.53;11.33;;;;;;;;;;518877;28;1535;-81
2022/05/07 00:34:43;;;;;;;12.90;11.73;;;;;;;;;;519080;28;1332;-81
2022/05/07 00:34:59;;;;;;;13.13;11.93;;;;;;;;;;519023;28;1479;-81
2022/05/07 00:35:16;;;;;;;13.00;11.80;;;;;;;;;;518850;28;1796;-81
2022/05/07 00:35:31;;;;;;;13.20;11.90;;;;;;;;;;518297;28;1548;-81
2022/05/07 00:35:47;;;;;;;13.33;12.00;;;;;;;;;;518573;28;1467;-81
2022/05/07 00:36:03;;;;;;;13.48;12.07;;;;;;;;;;518733;28;1748;-81
2022/05/07 00:36:18;;;;;;;13.30;11.98;;;;;;;;;;518666;28;1495;-81
2022/05/07 00:36:33;;;;;;;13.07;11.77;;;;;;;;;;516338;28;1693;-81
2022/05/07 00:36:49;;;;;;;13.00;11.70;;;;;;;;;;516195;28;1505;-81
2022/05/07 00:37:05;;;;;;;12.98;11.63;;;;;;;;;;516576;28;1602;-81
2022/05/07 00:37:20;;;;;;;12.82;11.52;;;;;;;;;;516903;28;1420;-81
2022/05/07 00:37:36;;;;;;;13.00;11.73;;;;;;;;;;517160;28;1822;-81
2022/05/07 00:37:52;;;;;;;13.20;11.90;;;;;;;;;;517213;28;1597;-81
2022/05/07 00:38:08;;;;;;;13.27;11.88;;;;;;;;;;514392;28;1644;-81
2022/05/07 00:38:23;;;;;;;13.18;11.80;;;;;;;;;;512559;28;1469;-81
2022/05/07 00:38:38;;;;;;;13.10;11.77;;;;;;;;;;513972;28;1421;-82
2022/05/07 00:38:54;;;;;;;13.00;11.70;;;;;;;;;;515811;28;1551;-82
2022/05/07 00:39:09;;;;;;;13.10;11.83;;;;;;;;;;513281;28;1402;-83
2022/05/07 00:39:25;;;;;;;13.27;11.97;;;;;;;;;;510378;29;1637;-82
2022/05/07 00:39:41;;;;;;;13.07;11.77;;;;;;;;;;509323;29;1511;-82
2022/05/07 00:39:56;;;;;;;12.98;11.63;;;;;;;;;;507825;29;1607;-81
2022/05/07 00:40:11;;;;;;;13.20;11.90;;;;;;;;;;509070;29;2629;-81
2022/05/07 00:40:27;;;;;;;12.70;11.50;;;;;;;;;;511494;29;1537;-81
2022/05/07 00:40:42;;;;;;;12.77;11.57;;;;;;;;;;510473;29;2348;-82
2022/05/07 00:40:59;;;;;;;13.27;11.97;;;;;;;;;;511491;28;1426;-82
2022/05/07 00:41:14;;;;;;;13.00;11.77;;;;;;;;;;513513;28;1439;-82
2022/05/07 00:41:29;;;;;;;12.87;11.67;;;;;;;;;;515236;28;1630;-81
2022/05/07 00:41:45;;;;;;;13.57;11.90;;;;;;;;;;517634;28;1698;-81
2022/05/07 00:42:04;;;;;;;14.88;11.80;;;;;;;;;;518970;28;1910;-81
2022/05/07 00:42:20;;;;;;;13.35;11.95;;;;;;;;;;518742;28;1897;-82
2022/05/07 00:42:36;;;;;;;13.00;11.80;;;;;;;;;;519164;28;1430;-82
2022/05/07 00:42:52;;;;;;;13.07;11.75;;;;;;;;;;519524;28;1535;-82
2022/05/07 00:43:07;;;;;;;13.75;12.25;;;;;;;;;;519640;28;1477;-82
2022/05/07 00:43:22;;;;;;;13.40;12.10;;;;;;;;;;517527;28;1701;-82
2022/05/07 00:43:40;;;;;;;13.20;11.90;;;;;;;;;;515610;28;1686;-82
2022/05/07 00:43:55;;;;;;;13.32;12.00;;;;;;;;;;513123;28;1527;-82
2022/05/07 00:44:11;;;;;;;13.47;12.10;;;;;;;;;;512753;28;1641;-82
2022/05/07 00:44:26;;;;;;;13.40;12.10;;;;;;;;;;511103;28;1320;-82
2022/05/07 00:44:41;;;;;;;13.07;11.87;;;;;;;;;;510468;28;1797;-82
2022/05/07 00:44:57;;;;;;;12.63;11.43;;;;;;;;;;510747;29;1707;-82
2022/05/07 00:45:12;;;;;;;13.37;12.03;;;;;;;;;;510894;28;1534;-82
2022/05/07 00:45:27;;;;;;;13.77;12.37;;;;;;;;;;512559;28;1354;-82
2022/05/07 00:45:46;;;;;;;13.80;12.40;;;;;;;;;;512626;28;1574;-82
2022/05/07 00:46:02;;;;;;;14.95;12.68;;;;;;;;;;513110;28;1587;-82
2022/05/07 00:46:21;;;;;;;14.37;12.90;;;;;;;;;;515566;28;1630;-82
2022/05/07 00:46:37;;;;;;;14.32;12.93;;;;;;;;;;515560;28;1513;-82
2022/05/07 00:46:52;;;;;;;13.35;12.05;;;;;;;;;;516759;28;1766;-82
2022/05/07 00:47:21;;;;;;;13.40;12.10;;;;;;;;;;516211;28;1671;-82
2022/05/07 00:47:38;;;;;;;13.55;12.10;;;;;;;;;;516122;28;1449;-82
2022/05/07 00:47:54;;;;;;;13.68;12.18;;;;;;;;;;517719;28;1574;-82
2022/05/07 00:48:10;;;;;;;13.43;12.10;;;;;;;;;;519841;28;1491;-82
2022/05/07 00:48:26;;;;;;;13.32;12.07;;;;;;;;;;517327;28;1490;-82
2022/05/07 00:48:42;;;;;;;13.77;12.38;;;;;;;;;;518062;28;901;-82
2022/05/07 00:48:58;;;;;;;13.98;12.57;;;;;;;;;;518192;28;920;-82
2022/05/07 00:49:13;;;;;;;13.90;12.50;;;;;;;;;;518521;28;848;-82
2022/05/07 00:49:29;;;;;;;13.82;12.38;;;;;;;;;;518326;28;853;-82
2022/05/07 00:49:47;;;;;;;15.30;12.47;;;;;;;;;;515750;28;1439;-82
2022/05/07 00:51:46;;;;;;;13.95;12.60;;;;;;;;;;519175;28;1467;-82
2022/05/07 00:52:02;;;;;;;14.18;12.57;;;;;;;;;;519615;28;1518;-82
2022/05/07 00:52:21;;;;;;;13.80;12.27;;;;;;;;;;516871;28;1470;-82
2022/05/07 00:52:36;;;;;;;13.50;12.10;;;;;;;;;;517165;28;1733;-82
2022/05/07 00:52:52;;;;;;;13.53;12.23;;;;;;;;;;517489;28;1470;-82
2022/05/07 00:53:08;;;;;;;13.53;12.23;;;;;;;;;;516843;28;1649;-82
2022/05/07 00:53:24;;;;;;;13.77;12.37;;;;;;;;;;515500;28;1290;-82
2022/05/07 00:53:40;;;;;;;13.75;12.35;;;;;;;;;;514696;28;1686;-82
2022/05/07 00:53:56;;;;;;;13.85;12.45;;;;;;;;;;513598;28;1534;-82
2022/05/07 00:54:11;;;;;;;14.13;12.73;;;;;;;;;;514986;28;1635;-82
2022/05/07 00:54:27;;;;;;;13.75;12.45;;;;;;;;;;515001;28;1445;-82
2022/05/07 00:54:43;;;;;;;13.93;12.57;;;;;;;;;;515185;28;1858;-82
2022/05/07 00:54:59;;;;;;;14.23;12.93;;;;;;;;;;515566;28;1486;-82
2022/05/07 00:55:15;;;;;;;14.43;13.03;;;;;;;;;;516702;28;1466;-82
2022/05/07 00:55:31;;;;;;;14.15;12.75;;;;;;;;;;517888;28;1603;-82
2022/05/07 00:55:48;;;;;;;13.98;12.63;;;;;;;;;;517975;28;1584;-82
2022/05/07 00:56:04;;;;;;;14.02;12.60;;;;;;;;;;518736;28;1622;-82
2022/05/07 00:56:19;;;;;;;13.60;12.20;;;;;;;;;;517248;28;1546;-82
2022/05/07 00:56:37;;;;;;;13.70;12.30;;;;;;;;;;517095;28;1500;-82
2022/05/07 00:56:53;;;;;;;13.73;12.43;;;;;;;;;;517484;28;1508;-82
2022/05/07 00:57:09;;;;;;;13.80;12.50;;;;;;;;;;517470;28;1496;-82
2022/05/07 00:57:24;;;;;;;14.05;12.73;;;;;;;;;;517099;28;1599;-82
2022/05/07 00:57:40;;;;;;;14.30;12.90;;;;;;;;;;517418;28;1620;-82
2022/05/07 00:57:56;;;;;;;14.02;12.63;;;;;;;;;;518038;28;1861;-82
2022/05/07 00:58:11;;;;;;;13.73;12.40;;;;;;;;;;517502;28;1585;-82
2022/05/07 00:58:27;;;;;;;14.32;12.82;;;;;;;;;;517690;28;1568;-82
2022/05/07 00:58:43;;;;;;;14.70;13.02;;;;;;;;;;517551;28;1685;-82
2022/05/07 00:58:59;;;;;;;14.93;13.33;;;;;;;;;;517834;28;1701;-82
2022/05/07 00:59:14;;;;;;;14.73;13.23;;;;;;;;;;517535;28;1564;-81
2022/05/07 00:59:30;;;;;;;14.05;12.63;;;;;;;;;;517830;28;1383;-81
2022/05/07 00:59:45;;;;;;;13.60;12.20;;;;;;;;;;518955;28;1536;-81
2022/05/07 01:00:03;;;;;;;13.90;12.50;;;;;;;;;;518050;28;1468;-82
2022/05/07 01:00:18;;;;;;;14.43;13.02;;;;;;;;;;518773;28;1426;-82
2022/05/07 01:00:33;;;;;;;14.23;12.83;;;;;;;;;;519856;28;1956;-82
2022/05/07 01:00:52;;;;;;;13.75;12.45;;;;;;;;;;519866;28;1513;-82
2022/05/07 01:01:08;;;;;;;13.68;12.35;;;;;;;;;;517707;28;1983;-82
2022/05/07 01:01:24;;;;;;;14.00;12.53;;;;;;;;;;517444;28;1535;-82
2022/05/07 01:01:40;;;;;;;14.18;12.70;;;;;;;;;;517582;28;1786;-82
2022/05/07 01:01:55;;;;;;;14.30;12.80;;;;;;;;;;517490;28;1584;-82
2022/05/07 01:02:11;;;;;;;14.30;12.57;;;;;;;;;;515808;28;1961;-82
2022/05/07 01:02:27;;;;;;;14.07;12.57;;;;;;;;;;515083;28;1964;-82
2022/05/07 01:02:42;;;;;;;14.05;12.60;;;;;;;;;;515150;28;1452;-82
2022/05/07 01:02:58;;;;;;;13.50;12.20;;;;;;;;;;515765;28;1543;-82
2022/05/07 01:03:13;;;;;;;13.53;12.23;;;;;;;;;;514313;28;1641;-82
2022/05/07 01:03:29;;;;;;;14.00;12.65;;;;;;;;;;515630;28;1508;-82
2022/05/07 01:03:46;;;;;;;14.50;13.00;;;;;;;;;;514830;28;1572;-82
2022/05/07 01:04:01;;;;;;;15.32;13.13;;;;;;;;;;516044;28;1448;-82
2022/05/07 01:04:17;;;;;;;14.32;12.82;;;;;;;;;;517680;28;1594;-82
2022/05/07 01:04:33;;;;;;;13.70;12.40;;;;;;;;;;517600;28;1550;-82
2022/05/07 01:04:48;;;;;;;13.25;11.95;;;;;;;;;;517205;28;1886;-82
2022/05/07 01:05:05;;;;;;;13.27;11.93;;;;;;;;;;517162;28;1419;-82
2022/05/07 01:05:21;;;;;;;13.43;12.13;;;;;;;;;;517966;28;1360;-82
2022/05/07 01:05:36;;;;;;;13.38;11.98;;;;;;;;;;518040;28;1004;-82
2022/05/07 01:05:51;;;;;;;13.37;12.07;;;;;;;;;;517942;28;1188;-82
2022/05/07 01:06:09;;;;;;;13.48;12.27;;;;;;;;;;518023;28;951;-82
2022/05/07 01:06:24;;;;;;;13.20;12.00;;;;;;;;;;518555;28;849;-82
2022/05/07 01:06:40;;;;;;;13.32;12.13;;;;;;;;;;520088;28;876;-82
2022/05/07 01:06:56;;;;;;;13.80;12.50;;;;;;;;;;520658;28;1616;-82
2022/05/07 01:07:11;;;;;;;13.75;12.45;;;;;;;;;;517909;28;1471;-82
2022/05/07 01:07:26;;;;;;;13.63;12.33;;;;;;;;;;517261;28;1785;-82
2022/05/07 01:07:43;;;;;;;13.77;12.43;;;;;;;;;;516897;28;1520;-82
2022/05/07 01:07:59;;;;;;;13.82;12.45;;;;;;;;;;517160;28;1543;-82
2022/05/07 01:08:14;;;;;;;14.03;12.63;;;;;;;;;;517254;28;1415;-82
2022/05/07 01:08:33;;;;;;;14.20;12.80;;;;;;;;;;517479;28;1636;-82
2022/05/07 01:08:49;;;;;;;13.63;12.32;;;;;;;;;;517062;28;1452;-82
2022/05/07 01:09:05;;;;;;;13.43;12.13;;;;;;;;;;518400;28;1511;-82
2022/05/07 01:09:20;;;;;;;13.73;12.43;;;;;;;;;;519680;28;1808;-82
2022/05/07 01:09:36;;;;;;;13.88;12.63;;;;;;;;;;519246;28;1494;-82
2022/05/07 01:09:52;;;;;;;13.70;12.40;;;;;;;;;;518546;28;1931;-82
2022/05/07 01:10:09;;;;;;;13.48;12.15;;;;;;;;;;516948;28;1562;-82
2022/05/07 01:10:25;;;;;;;13.65;12.35;;;;;;;;;;516786;28;1738;-82
2022/05/07 01:10:40;;;;;;;14.37;12.87;;;;;;;;;;517105;28;1836;-82
2022/05/07 01:10:56;;;;;;;14.60;13.10;;;;;;;;;;515402;28;1508;-82
2022/05/07 01:11:13;;;;;;;14.32;12.88;;;;;;;;;;515618;28;1468;-82
2022/05/07 01:11:29;;;;;;;13.88;12.57;;;;;;;;;;515612;28;1706;-82
2022/05/07 01:11:45;;;;;;;13.70;12.50;;;;;;;;;;517287;28;1608;-82
2022/05/07 01:12:00;;;;;;;13.77;12.52;;;;;;;;;;515735;28;1632;-82
2022/05/07 01:12:19;;;;;;;13.85;12.55;;;;;;;;;;515523;28;1619;-82
2022/05/07 01:12:37;;;;;;;13.52;12.25;;;;;;;;;;514525;28;1535;-82
2022/05/07 01:12:57;;;;;;;12.95;11.75;;;;;;;;;;514577;28;1406;-82
2022/05/07 01:13:13;;;;;;;13.55;12.15;;;;;;;;;;515664;28;1931;-82
2022/05/07 01:13:28;;;;;;;13.87;12.47;;;;;;;;;;514283;28;1421;-82
2022/05/07 01:13:46;;;;;;;13.85;12.55;;;;;;;;;;513613;28;1556;-82
2022/05/07 01:14:01;;;;;;;13.63;12.23;;;;;;;;;;515224;28;1678;-81
2022/05/07 01:14:17;;;;;;;13.60;12.25;;;;;;;;;;515705;28;1515;-82
2022/05/07 01:14:32;;;;;;;13.40;12.20;;;;;;;;;;515559;28;1527;-82
2022/05/07 01:14:47;;;;;;;13.80;12.43;;;;;;;;;;515846;28;1436;-82
2022/05/07 01:15:03;;;;;;;13.95;12.55;;;;;;;;;;515721;28;1393;-82
2022/05/07 01:15:18;;;;;;;13.30;12.03;;;;;;;;;;515599;28;1562;-82
2022/05/07 01:15:42;;;;;;;13.10;11.90;;;;;;;;;;515165;28;1650;-82
2022/05/07 01:15:58;;;;;;;13.13;11.93;;;;;;;;;;515816;28;1402;-82
2022/05/07 01:16:16;;;;;;;13.27;12.07;;;;;;;;;;515695;28;1369;-82
2022/05/07 01:16:32;;;;;;;13.02;11.82;;;;;;;;;;517151;28;1881;-82
2022/05/07 01:16:47;;;;;;;13.57;12.30;;;;;;;;;;513725;28;1675;-82
2022/05/07 01:17:06;;;;;;;13.60;12.30;;;;;;;;;;513741;28;1473;-82
2022/05/07 01:17:21;;;;;;;13.57;12.18;;;;;;;;;;513915;28;2038;-82
2022/05/07 01:17:38;;;;;;;13.70;12.40;;;;;;;;;;516140;28;1514;-82
2022/05/07 01:17:53;;;;;;;13.68;12.40;;;;;;;;;;513361;28;1438;-82
2022/05/07 01:18:12;;;;;;;13.82;12.52;;;;;;;;;;512685;28;1568;-82
2022/05/07 01:18:27;;;;;;;13.60;12.30;;;;;;;;;;513316;28;1528;-82
2022/05/07 01:18:43;;;;;;;13.10;11.90;;;;;;;;;;514255;28;1417;-82
2022/05/07 01:18:58;;;;;;;13.07;11.87;;;;;;;;;;515617;28;1440;-82
2022/05/07 01:19:13;;;;;;;13.45;12.18;;;;;;;;;;515783;28;1530;-82
2022/05/07 01:19:29;;;;;;;13.37;12.10;;;;;;;;;;515533;28;1356;-82
2022/05/07 01:19:44;;;;;;;13.50;12.20;;;;;;;;;;516671;28;1420;-82
2022/05/07 01:19:59;;;;;;;14.13;12.55;;;;;;;;;;515613;28;1432;-82
2022/05/07 01:20:15;;;;;;;13.93;12.43;;;;;;;;;;517840;28;1884;-82
2022/05/07 01:20:31;;;;;;;14.00;12.65;;;;;;;;;;517608;28;1453;-82
2022/05/07 01:20:46;;;;;;;13.90;12.57;;;;;;;;;;516283;28;1630;-82
2022/05/07 01:21:17;;;;;;;13.97;12.57;;;;;;;;;;515640;28;1640;-82
2022/05/07 01:21:32;;;;;;;13.90;12.60;;;;;;;;;;513283;28;1426;-82
2022/05/07 01:21:48;;;;;;;13.73;12.43;;;;;;;;;;513167;28;1468;-82
2022/05/07 01:22:06;;;;;;;13.50;12.30;;;;;;;;;;513569;28;1947;-82
2022/05/07 01:22:24;;;;;;;13.50;12.30;;;;;;;;;;512967;28;1820;-82
2022/05/07 01:22:41;;;;;;;13.98;12.57;;;;;;;;;;517114;28;1468;-82
2022/05/07 01:22:56;;;;;;;13.77;12.43;;;;;;;;;;517480;28;1491;-82
2022/05/07 01:23:12;;;;;;;13.52;12.27;;;;;;;;;;517420;28;1782;-82
2022/05/07 01:23:27;;;;;;;13.73;12.33;;;;;;;;;;515108;28;1499;-82
2022/05/07 01:23:44;;;;;;;14.07;12.73;;;;;;;;;;515506;28;1706;-82
2022/05/07 01:24:00;;;;;;;13.80;12.60;;;;;;;;;;516062;28;1472;-82
2022/05/07 01:24:15;;;;;;;13.33;12.13;;;;;;;;;;515740;28;1587;-82
2022/05/07 01:24:30;;;;;;;13.55;12.25;;;;;;;;;;512747;28;1440;-82
2022/05/07 01:24:46;;;;;;;14.13;12.63;;;;;;;;;;513773;28;1727;-82
2022/05/07 01:25:02;;;;;;;14.50;13.00;;;;;;;;;;513663;28;1465;-81
2022/05/07 01:25:17;;;;;;;14.20;12.80;;;;;;;;;;512254;28;1630;-81
2022/05/07 01:25:33;;;;;;;14.00;12.52;;;;;;;;;;513930;28;1575;-82
2022/05/07 01:25:48;;;;;;;13.67;12.27;;;;;;;;;;513113;28;1514;-82
2022/05/07 01:26:03;;;;;;;13.70;12.40;;;;;;;;;;513014;28;1664;-82
2022/05/07 01:26:23;;;;;;;14.43;13.03;;;;;;;;;;513143;28;1504;-82
2022/05/07 01:26:39;;;;;;;14.57;13.18;;;;;;;;;;514526;28;1519;-82
2022/05/07 01:26:55;;;;;;;14.25;12.95;;;;;;;;;;516582;28;1726;-82
2022/05/07 01:27:10;;;;;;;14.40;13.00;;;;;;;;;;518766;28;946;-82
2022/05/07 01:27:25;;;;;;;14.52;13.00;;;;;;;;;;519542;28;1564;-82
2022/05/07 01:27:41;;;;;;;15.43;13.10;;;;;;;;;;516881;28;1372;-82
2022/05/07 01:27:56;;;;;;;14.90;13.23;;;;;;;;;;515899;28;1506;-82
2022/05/07 01:28:12;;;;;;;14.70;13.30;;;;;;;;;;516026;28;805;-82
2022/05/07 01:28:28;;;;;;;14.80;13.30;;;;;;;;;;515567;28;1627;-82
2022/05/07 01:28:44;;;;;;;14.57;13.13;;;;;;;;;;515792;28;1453;-82
2022/05/07 01:29:01;;;;;;;14.23;12.82;;;;;;;;;;515312;28;1459;-82
2022/05/07 01:29:16;;;;;;;14.40;13.00;;;;;;;;;;516106;28;1465;-82
2022/05/07 01:29:31;;;;;;;14.40;13.00;;;;;;;;;;516139;28;1552;-82
2022/05/07 01:29:48;;;;;;;13.73;12.37;;;;;;;;;;515276;28;1662;-82
2022/05/07 01:30:04;;;;;;;13.57;12.20;;;;;;;;;;515083;28;1401;-81
2022/05/07 01:30:20;;;;;;;14.05;12.65;;;;;;;;;;515637;28;1607;-82
2022/05/07 01:30:36;;;;;;;14.35;12.95;;;;;;;;;;515754;28;1452;-82
2022/05/07 01:30:51;;;;;;;14.40;13.00;;;;;;;;;;515728;28;1481;-82
2022/05/07 01:31:07;;;;;;;14.48;12.98;;;;;;;;;;516056;28;1436;-82
2022/05/07 01:31:25;;;;;;;14.37;12.97;;;;;;;;;;517336;28;1507;-82
2022/05/07 01:31:41;;;;;;;14.30;12.90;;;;;;;;;;518153;28;1515;-82
2022/05/07 01:31:56;;;;;;;14.60;13.20;;;;;;;;;;517757;28;1641;-82
2022/05/07 01:32:12;;;;;;;14.85;13.45;;;;;;;;;;517595;28;1782;-82
2022/05/07 01:32:27;;;;;;;14.40;13.10;;;;;;;;;;517660;28;1590;-82
2022/05/07 01:32:42;;;;;;;14.93;13.35;;;;;;;;;;518150;28;1675;-82
2022/05/07 01:32:58;;;;;;;15.33;13.50;;;;;;;;;;517888;28;1460;-82
2022/05/07 01:33:13;;;;;;;14.77;13.33;;;;;;;;;;518479;28;1676;-82
2022/05/07 01:33:33;;;;;;;14.55;13.05;;;;;;;;;;517775;28;1655;-82
2022/05/07 01:33:48;;;;;;;14.63;13.15;;;;;;;;;;517432;28;1443;-82
2022/05/07 01:34:04;;;;;;;15.47;13.93;;;;;;;;;;517895;28;1412;-82
2022/05/07 01:34:19;;;;;;;15.23;13.83;;;;;;;;;;517997;28;1352;-82
2022/05/07 01:34:35;;;;;;;14.77;13.27;;;;;;;;;;517893;28;1424;-82
2022/05/07 01:34:53;;;;;;;14.32;12.82;;;;;;;;;;517580;28;1688;-82
2022/05/07 01:35:08;;;;;;;14.05;12.65;;;;;;;;;;517422;28;1546;-82
2022/05/07 01:35:24;;;;;;;14.23;12.83;;;;;;;;;;515568;28;1461;-82
2022/05/07 01:35:40;;;;;;;14.53;13.03;;;;;;;;;;515863;28;1459;-82
2022/05/07 01:35:55;;;;;;;14.65;13.15;;;;;;;;;;515240;28;1376;-82
2022/05/07 01:36:13;;;;;;;14.87;13.47;;;;;;;;;;515608;28;1774;-82
2022/05/07 01:36:31;;;;;;;15.00;13.57;;;;;;;;;;515721;28;1626;-82
2022/05/07 01:36:46;;;;;;;14.75;13.23;;;;;;;;;;515355;28;1298;-82
2022/05/07 01:37:02;;;;;;;14.73;13.27;;;;;;;;;;515987;28;1539;-82
2022/05/07 01:37:18;;;;;;;14.65;13.25;;;;;;;;;;514238;28;1584;-82
2022/05/07 01:37:33;;;;;;;14.98;13.50;;;;;;;;;;514657;28;1648;-82
2022/05/07 01:37:49;;;;;;;15.33;13.83;;;;;;;;;;515417;28;2122;-82
2022/05/07 01:38:05;;;;;;;14.63;13.23;;;;;;;;;;515952;28;1876;-82
2022/05/07 01:38:20;;;;;;;13.77;12.48;;;;;;;;;;515171;28;1571;-82
2022/05/07 01:38:36;;;;;;;14.03;12.63;;;;;;;;;;515431;28;2055;-82
2022/05/07 01:38:51;;;;;;;14.60;13.10;;;;;;;;;;515890;28;1682;-82
2022/05/07 01:39:07;;;;;;;14.43;13.03;;;;;;;;;;515535;28;1487;-82
2022/05/07 01:39:22;;;;;;;14.33;12.93;;;;;;;;;;515561;28;1590;-82